Flight Track Log - Related Links

Times and Time Zones

All times are in EDT time to prevent confusion due to time zone crossing. See the CSH9416 flight status page for this flight to view local times or setup timezone preferences in your user account.


Time Position Orientation Groundspeed Altitude Reporting Facility
EDT Latitude Longitude Course Direction KTS MPH feet Rate Location/Type
Mon 11:16:00 PM 33.6024 119.6044 148° Southeast  Level Estimated
Mon 11:17:00 PM 33.5376 119.6525 148° Southeast  Level Estimated
Mon 11:18:00 PM 33.4763 119.6979 148° Southeast  Level Estimated
Mon 11:19:00 PM 33.4151 119.7433 148° Southeast  Level Estimated
Mon 11:20:00 PM 33.3538 119.7886 148° Southeast  Level Estimated
Mon 11:21:00 PM 33.2925 119.8338 148° Southeast  Level Estimated
Mon 11:22:00 PM 33.2311 119.8790 148° Southeast  Level Estimated
Mon 11:23:00 PM 33.1698 119.9241 148° Southeast  Level Estimated
Mon 11:24:00 PM 33.1085 119.9692 148° Southeast  Level Estimated
Mon 11:25:00 PM 33.0471 120.0142 148° Southeast  Level Estimated
Mon 11:26:00 PM 32.9857 120.0591 148° Southeast  Level Estimated
Mon 11:27:00 PM 32.9243 120.1040 148° Southeast  Level Estimated
Mon 11:28:00 PM 32.8629 120.1488 148° Southeast  Level Estimated
Mon 11:29:00 PM 32.8014 120.1935 149° Southeast  Level Estimated
Mon 11:30:00 PM 32.7400 120.2382 149° Southeast  Level Estimated
Mon 11:31:00 PM 32.6785 120.2828 149° Southeast  Level Estimated
Mon 11:32:00 PM 32.6170 120.3274 149° Southeast  Level Estimated
Mon 11:33:00 PM 32.5555 120.3719 149° Southeast  Level Estimated
Mon 11:34:00 PM 32.4940 120.4163 149° Southeast  Level Estimated
Mon 11:35:00 PM 32.4325 120.4607 149° Southeast  Level Estimated
Mon 11:36:00 PM 32.3709 120.5050 149° Southeast  Level Estimated
Mon 11:37:00 PM 32.3094 120.5493 149° Southeast  Level Estimated
Mon 11:38:00 PM 32.2478 120.5935 149° Southeast  Level Estimated
Mon 11:39:00 PM 32.1862 120.6376 149° Southeast  Level Estimated
Mon 11:40:00 PM 32.1246 120.6817 149° Southeast  Level Estimated
Mon 11:41:00 PM 32.0630 120.7257 149° Southeast  Level Estimated
Mon 11:42:00 PM 32.0014 120.7696 149° Southeast  Level Estimated
Mon 11:43:00 PM 31.9397 120.8135 149° Southeast  Level Estimated
Mon 11:44:00 PM 31.8780 120.8574 149° Southeast  Level Estimated
Mon 11:45:00 PM 31.8163 120.9011 149° Southeast  Level Estimated
Mon 11:46:00 PM 31.7547 120.9449 149° Southeast  Level Estimated
Mon 11:47:00 PM 31.6929 120.9885 149° Southeast  Level Estimated
Mon 11:48:00 PM 31.6312 121.0321 149° Southeast  Level Estimated
Mon 11:49:00 PM 31.5695 121.0757 149° Southeast  Level Estimated
Mon 11:50:00 PM 31.5077 121.1192 149° Southeast  Level Estimated
Mon 11:51:00 PM 31.4459 121.1626 149° Southeast  Level Estimated
Mon 11:52:00 PM 31.3841 121.2060 149° Southeast  Level Estimated
Mon 11:53:00 PM 31.3223 121.2493 149° Southeast  Level Estimated

Login

Don't have an account? Register now (free) for customized features, flight alerts, and more!